createdAt,value
2017-09-28T00:01:39.842Z,16.70
2017-09-28T00:04:08.687Z,16.70
2017-09-28T00:06:37.521Z,16.60
2017-09-28T00:09:06.404Z,16.60
2017-09-28T00:11:36.015Z,16.60
2017-09-28T00:14:04.849Z,16.60
2017-09-28T00:16:33.502Z,16.60
2017-09-28T00:19:02.340Z,16.60
2017-09-28T00:21:31.187Z,16.60
2017-09-28T00:24:00.034Z,16.60
2017-09-28T00:26:29.678Z,16.70
2017-09-28T00:28:58.522Z,16.70
2017-09-28T00:31:26.682Z,16.70
2017-09-28T00:33:55.198Z,16.80
2017-09-28T00:36:23.713Z,16.80
2017-09-28T00:38:51.872Z,16.80
2017-09-28T00:41:22.033Z,16.80
2017-09-28T00:43:50.585Z,16.80
2017-09-28T00:46:19.421Z,16.80
2017-09-28T00:48:49.214Z,16.90
2017-09-28T00:51:17.372Z,16.90
2017-09-28T00:53:46.563Z,16.90
2017-09-28T00:56:15.425Z,16.90
2017-09-28T00:58:45.037Z,16.90
2017-09-28T01:01:14.662Z,16.90
2017-09-28T01:03:44.314Z,16.90
2017-09-28T01:06:13.883Z,16.90
2017-09-28T01:08:42.038Z,16.90
2017-09-28T01:11:11.642Z,16.90
2017-09-28T01:13:40.145Z,16.80
2017-09-28T01:16:09.757Z,16.90
2017-09-28T01:18:38.624Z,16.90
2017-09-28T01:21:07.283Z,16.90
2017-09-28T01:23:35.434Z,16.90
2017-09-28T01:26:03.796Z,16.80
2017-09-28T01:28:32.294Z,16.70
2017-09-28T01:31:02.499Z,16.80
2017-09-28T01:33:30.999Z,16.80
2017-09-28T01:35:59.494Z,16.80
2017-09-28T01:38:27.987Z,16.80
2017-09-28T01:40:57.657Z,16.80
2017-09-28T01:43:26.497Z,16.90
2017-09-28T01:45:55.947Z,16.90
2017-09-28T01:48:26.094Z,16.90
2017-09-28T01:50:54.965Z,16.90
2017-09-28T01:53:23.802Z,16.90
2017-09-28T01:55:53.113Z,16.90
2017-09-28T01:58:21.762Z,16.90
2017-09-28T02:00:50.611Z,16.90
2017-09-28T02:03:20.633Z,16.80
2017-09-28T02:05:49.927Z,16.80
2017-09-28T02:08:20.086Z,16.80
2017-09-28T02:10:48.946Z,16.80
2017-09-28T02:13:18.555Z,16.80
2017-09-28T02:15:48.175Z,16.80
2017-09-28T02:18:17.786Z,16.80
2017-09-28T02:20:46.653Z,16.80
2017-09-28T02:23:16.187Z,16.80
2017-09-28T02:25:44.333Z,16.80
2017-09-28T02:28:12.486Z,16.80
2017-09-28T02:30:41.318Z,16.80
2017-09-28T02:33:10.171Z,16.80
2017-09-28T02:35:39.015Z,16.80
2017-09-28T02:38:07.867Z,16.80
2017-09-28T02:40:36.380Z,16.80
2017-09-28T02:43:05.233Z,16.80
2017-09-28T02:45:34.088Z,16.70
2017-09-28T02:48:02.744Z,16.70
2017-09-28T02:50:33.114Z,16.70
2017-09-28T02:53:01.966Z,16.60
2017-09-28T02:55:30.813Z,16.70
2017-09-28T02:57:59.662Z,16.70
2017-09-28T03:00:28.503Z,16.70
2017-09-28T03:02:57.346Z,16.70
2017-09-28T03:05:26.782Z,16.70
2017-09-28T03:07:55.618Z,16.60
2017-09-28T03:10:25.226Z,16.50
2017-09-28T03:12:54.066Z,16.50
2017-09-28T03:15:22.932Z,16.60
2017-09-28T03:17:52.651Z,16.60
2017-09-28T03:20:21.309Z,16.60
2017-09-28T03:22:50.160Z,16.50
2017-09-28T03:25:19.010Z,16.50
2017-09-28T03:27:47.870Z,16.50
2017-09-28T03:30:17.484Z,16.50
2017-09-28T03:32:46.137Z,16.50
2017-09-28T03:35:15.774Z,16.60
2017-09-28T03:37:48.995Z,16.60
2017-09-28T03:40:19.165Z,16.70
2017-09-28T03:42:48.049Z,16.70
2017-09-28T03:45:16.909Z,16.70
2017-09-28T03:47:45.618Z,16.70
2017-09-28T03:50:14.269Z,16.70
2017-09-28T03:52:43.159Z,16.70
2017-09-28T03:55:13.516Z,16.70
2017-09-28T03:57:42.378Z,16.70
2017-09-28T04:00:10.881Z,16.70
2017-09-28T04:02:39.729Z,16.70
2017-09-28T04:05:08.579Z,16.70
2017-09-28T04:07:37.426Z,16.80
2017-09-28T04:10:06.845Z,16.80
2017-09-28T04:12:35.697Z,16.80
2017-09-28T04:15:05.308Z,16.80
2017-09-28T04:17:34.922Z,16.80
2017-09-28T04:20:03.578Z,16.70
2017-09-28T04:22:32.435Z,16.80
2017-09-28T04:25:00.947Z,16.70
2017-09-28T04:27:29.473Z,16.80
2017-09-28T04:29:58.318Z,16.80
2017-09-28T04:32:27.170Z,16.80
2017-09-28T04:34:56.097Z,16.80
2017-09-28T04:37:24.942Z,16.80
2017-09-28T04:39:53.803Z,16.80
2017-09-28T04:42:23.419Z,16.70
2017-09-28T04:44:52.264Z,16.70
2017-09-28T04:47:21.142Z,16.70
2017-09-28T04:49:49.989Z,16.70
2017-09-28T04:52:18.847Z,16.70
2017-09-28T04:54:47.703Z,16.70
2017-09-28T04:57:16.576Z,16.70
2017-09-28T04:59:45.429Z,16.60
2017-09-28T05:02:14.349Z,16.70
2017-09-28T05:04:43.885Z,16.60
2017-09-28T05:07:12.734Z,16.60
2017-09-28T05:09:41.575Z,16.60
2017-09-28T05:12:10.426Z,16.60
2017-09-28T05:14:40.061Z,16.60
2017-09-28T05:17:09.858Z,16.60
2017-09-28T05:19:40.324Z,16.50
2017-09-28T05:22:09.845Z,16.50
2017-09-28T05:24:38.690Z,16.50
2017-09-28T05:27:07.554Z,16.50
2017-09-28T05:29:36.412Z,16.50
2017-09-28T05:32:06.050Z,16.50
2017-09-28T05:34:34.887Z,16.50
2017-09-28T05:37:04.454Z,16.50
2017-09-28T05:39:32.950Z,16.50
2017-09-28T05:42:02.230Z,16.60
2017-09-28T05:44:31.522Z,16.50
2017-09-28T05:47:00.389Z,16.60
2017-09-28T05:49:29.129Z,16.60
2017-09-28T05:51:58.746Z,16.60
2017-09-28T05:54:28.365Z,16.60
2017-09-28T05:56:57.232Z,16.50
2017-09-28T05:59:26.899Z,16.60
2017-09-28T06:01:55.568Z,16.50
2017-09-28T06:04:24.243Z,16.50
2017-09-28T06:06:53.776Z,16.50
2017-09-28T06:09:22.618Z,16.50
2017-09-28T06:11:52.241Z,16.50
2017-09-28T06:14:21.102Z,16.50
2017-09-28T06:16:49.960Z,16.50
2017-09-28T06:19:18.819Z,16.50
2017-09-28T06:21:49.049Z,16.50
2017-09-28T06:24:18.480Z,16.40
2017-09-28T06:26:47.544Z,16.40
2017-09-28T06:29:16.335Z,16.50
2017-09-28T06:31:45.202Z,16.50
2017-09-28T06:34:14.069Z,16.60
2017-09-28T06:36:42.913Z,16.70
2017-09-28T06:39:12.357Z,16.70
2017-09-28T06:41:41.106Z,16.80
2017-09-28T06:44:09.837Z,16.90
2017-09-28T06:46:39.106Z,17.00
2017-09-28T06:49:08.595Z,17.00
2017-09-28T06:51:37.978Z,17.10
2017-09-28T06:54:06.870Z,17.10
2017-09-28T06:56:37.328Z,17.20
2017-09-28T06:59:06.431Z,17.20
2017-09-28T07:01:35.286Z,17.30
2017-09-28T07:04:04.909Z,17.40
2017-09-28T07:06:33.804Z,17.40
2017-09-28T07:09:02.695Z,17.50
2017-09-28T07:11:32.509Z,17.50
2017-09-28T07:14:01.622Z,17.60
2017-09-28T07:16:31.109Z,17.70
2017-09-28T07:18:59.957Z,17.70
2017-09-28T07:21:28.806Z,17.80
2017-09-28T07:23:57.663Z,17.90
2017-09-28T07:26:27.288Z,18.00
2017-09-28T07:28:57.057Z,18.00
2017-09-28T07:31:26.688Z,18.00
2017-09-28T07:33:56.294Z,17.90
2017-09-28T07:36:25.143Z,18.00
2017-09-28T07:38:53.999Z,17.80
2017-09-28T07:41:22.848Z,17.70
2017-09-28T07:43:52.686Z,17.70
2017-09-28T07:46:22.293Z,17.70
2017-09-28T07:48:51.923Z,17.80
2017-09-28T07:51:20.767Z,17.80
2017-09-28T07:53:49.629Z,18.00
2017-09-28T07:56:18.765Z,18.20
2017-09-28T07:58:47.612Z,18.40
2017-09-28T08:01:17.415Z,18.50
2017-09-28T08:03:46.263Z,18.60
2017-09-28T08:06:15.125Z,18.80
2017-09-28T08:08:43.966Z,18.90
2017-09-28T08:11:13.590Z,19.20
2017-09-28T08:13:42.442Z,19.20
2017-09-28T08:16:11.286Z,19.40
2017-09-28T08:18:40.138Z,19.60
2017-09-28T08:21:09.745Z,19.80
2017-09-28T08:23:39.022Z,20.00
2017-09-28T08:26:08.373Z,20.00
2017-09-28T08:28:37.213Z,20.10
2017-09-28T08:31:06.873Z,20.10
2017-09-28T08:33:35.717Z,20.30
2017-09-28T08:36:04.656Z,20.50
2017-09-28T08:38:33.157Z,20.60
2017-09-28T08:41:02.024Z,20.80
2017-09-28T08:43:30.877Z,20.80
2017-09-28T08:45:59.741Z,20.90
2017-09-28T08:48:28.590Z,20.90
2017-09-28T08:50:58.217Z,21.30
2017-09-28T08:53:27.070Z,21.20
2017-09-28T08:55:55.915Z,21.30
2017-09-28T08:58:24.780Z,21.50
2017-09-28T09:00:53.632Z,21.60
2017-09-28T09:03:22.484Z,21.70
2017-09-28T09:05:51.329Z,21.80
2017-09-28T09:08:20.960Z,21.90
2017-09-28T09:10:49.817Z,21.80
2017-09-28T09:13:18.676Z,21.90
2017-09-28T09:15:47.538Z,22.00
2017-09-28T09:18:16.381Z,21.90
2017-09-28T09:20:45.833Z,22.20
2017-09-28T09:23:14.674Z,22.30
2017-09-28T09:25:43.536Z,22.20
2017-09-28T09:28:12.410Z,22.20
2017-09-28T09:30:42.102Z,22.30
2017-09-28T09:33:11.707Z,22.00
2017-09-28T09:35:41.334Z,21.80
2017-09-28T09:38:10.532Z,21.80
2017-09-28T09:40:40.135Z,21.60
2017-09-28T09:43:08.991Z,21.50
2017-09-28T09:45:38.617Z,21.40
2017-09-28T09:48:08.235Z,21.60
2017-09-28T09:50:37.450Z,21.50
2017-09-28T09:53:06.317Z,21.60
2017-09-28T09:55:35.940Z,21.60
2017-09-28T09:58:05.702Z,21.60
2017-09-28T10:00:34.554Z,21.70
2017-09-28T10:03:03.410Z,21.70
2017-09-28T10:05:32.270Z,21.80
2017-09-28T10:08:18.292Z,21.70
2017-09-28T10:10:57.147Z,21.70
2017-09-28T10:13:30.468Z,21.70
2017-09-28T10:16:09.566Z,21.60
2017-09-28T10:18:38.231Z,21.60
2017-09-28T10:21:08.307Z,21.60
2017-09-28T10:23:37.178Z,21.60
2017-09-28T10:26:06.061Z,21.50
2017-09-28T10:28:34.902Z,21.70
2017-09-28T10:31:03.747Z,21.90
2017-09-28T10:33:32.586Z,22.10
2017-09-28T10:36:01.464Z,22.10
2017-09-28T10:38:30.374Z,22.10
2017-09-28T10:40:59.218Z,22.20
2017-09-28T10:43:28.086Z,22.20
2017-09-28T10:45:57.707Z,22.40
2017-09-28T10:48:26.566Z,22.40
2017-09-28T10:50:56.189Z,22.20
2017-09-28T10:53:25.810Z,22.20
2017-09-28T10:55:54.671Z,22.20
2017-09-28T10:58:23.534Z,22.20
2017-09-28T11:00:52.426Z,22.20
2017-09-28T11:03:21.305Z,22.10
2017-09-28T11:05:50.154Z,22.20
2017-09-28T11:08:19.772Z,22.20
2017-09-28T11:10:49.399Z,22.20
2017-09-28T11:13:18.246Z,22.20
2017-09-28T11:15:47.094Z,22.10
2017-09-28T11:18:15.952Z,22.10
2017-09-28T11:20:44.808Z,21.90
2017-09-28T11:23:13.562Z,22.00
2017-09-28T11:25:43.405Z,22.00
2017-09-28T11:28:12.280Z,22.10
2017-09-28T11:30:41.935Z,22.10
2017-09-28T11:33:11.550Z,22.40
2017-09-28T11:35:41.174Z,22.40
2017-09-28T11:38:10.023Z,22.40
2017-09-28T11:40:38.866Z,22.40
2017-09-28T11:43:07.722Z,22.50
2017-09-28T11:45:36.564Z,22.50
2017-09-28T11:48:06.223Z,22.60
2017-09-28T11:50:35.085Z,22.60
2017-09-28T11:53:03.958Z,22.80
2017-09-28T11:55:32.846Z,22.90
2017-09-28T11:58:01.707Z,22.90
2017-09-28T12:00:30.653Z,23.00
2017-09-28T12:02:59.767Z,22.90
2017-09-28T12:05:28.609Z,22.80
2017-09-28T12:07:57.473Z,22.90
2017-09-28T12:10:26.329Z,22.80
2017-09-28T12:12:55.173Z,22.80
2017-09-28T12:15:23.843Z,22.70
2017-09-28T12:17:53.459Z,22.50
2017-09-28T12:20:23.102Z,22.40
2017-09-28T12:22:52.183Z,22.40
2017-09-28T12:25:21.041Z,22.30
2017-09-28T12:27:50.664Z,22.10
2017-09-28T12:30:19.516Z,22.10
2017-09-28T12:32:48.363Z,22.10
2017-09-28T12:35:17.243Z,22.10
2017-09-28T12:37:46.111Z,22.10
2017-09-28T12:40:15.729Z,22.30
2017-09-28T12:42:45.348Z,22.30
2017-09-28T12:45:14.206Z,22.20
2017-09-28T12:47:43.902Z,22.30
2017-09-28T12:50:12.755Z,22.20
2017-09-28T12:52:41.613Z,22.10
2017-09-28T12:55:11.233Z,22.00
2017-09-28T12:57:40.093Z,22.00
2017-09-28T13:00:09.750Z,21.90
2017-09-28T13:02:38.613Z,21.80
2017-09-28T13:05:08.261Z,21.60
2017-09-28T13:07:37.121Z,21.60
2017-09-28T13:10:07.266Z,21.50
2017-09-28T13:12:36.134Z,21.50
2017-09-28T13:15:05.746Z,21.40
2017-09-28T13:17:35.932Z,21.30
2017-09-28T13:20:04.771Z,21.30
2017-09-28T13:22:33.625Z,21.20
2017-09-28T13:25:02.204Z,21.20
2017-09-28T13:27:31.068Z,21.20
2017-09-28T13:29:59.738Z,21.10
2017-09-28T13:32:29.433Z,21.10
2017-09-28T13:34:59.553Z,21.00
2017-09-28T13:37:28.394Z,20.90
2017-09-28T13:39:57.137Z,20.90
2017-09-28T13:42:25.978Z,20.80
2017-09-28T13:44:54.855Z,20.70
2017-09-28T13:47:23.705Z,20.70
2017-09-28T13:49:52.562Z,20.70
2017-09-28T13:52:23.256Z,20.70
2017-09-28T13:54:52.105Z,20.60
2017-09-28T13:57:21.714Z,20.50
2017-09-28T13:59:52.158Z,20.50
2017-09-28T14:02:21.040Z,20.40
2017-09-28T14:04:50.723Z,20.50
2017-09-28T14:07:20.394Z,20.50
2017-09-28T14:09:53.256Z,20.50
2017-09-28T14:12:22.095Z,20.40
2017-09-28T14:14:50.968Z,20.30
2017-09-28T14:17:20.080Z,20.30
2017-09-28T14:19:50.434Z,20.30
2017-09-28T14:22:20.835Z,20.20
2017-09-28T14:24:50.256Z,20.20
2017-09-28T14:27:19.088Z,20.20
2017-09-28T14:29:47.946Z,20.20
2017-09-28T14:32:20.962Z,20.20
2017-09-28T14:34:49.802Z,20.20
2017-09-28T14:37:18.650Z,20.10
2017-09-28T14:39:47.502Z,20.10
2017-09-28T14:42:17.122Z,20.10
2017-09-28T14:44:46.730Z,20.00
2017-09-28T14:47:16.338Z,20.00
2017-09-28T14:49:45.948Z,19.90
2017-09-28T14:52:16.369Z,19.90
2017-09-28T14:54:45.207Z,19.90
2017-09-28T14:57:14.056Z,20.00
2017-09-28T14:59:43.670Z,20.00
2017-09-28T15:02:13.271Z,20.00
2017-09-28T15:04:42.881Z,20.00
2017-09-28T15:07:11.736Z,19.90
2017-09-28T15:09:40.579Z,20.00
2017-09-28T15:12:09.617Z,19.90
2017-09-28T15:14:38.465Z,19.90
2017-09-28T15:17:07.319Z,19.90
2017-09-28T15:19:36.159Z,19.90
2017-09-28T15:22:05.003Z,19.90
2017-09-28T15:24:33.829Z,20.00
2017-09-28T15:27:02.695Z,19.90
2017-09-28T15:29:32.322Z,19.90
2017-09-28T15:32:01.199Z,19.80
2017-09-28T15:34:30.827Z,19.90
2017-09-28T15:36:59.490Z,19.80
2017-09-28T15:39:28.622Z,19.80
2017-09-28T15:41:57.305Z,19.80
2017-09-28T15:44:26.189Z,19.80
2017-09-28T15:46:56.915Z,19.90
2017-09-28T15:49:26.525Z,19.90
2017-09-28T15:51:55.433Z,19.80
2017-09-28T15:54:24.288Z,19.90
2017-09-28T15:56:53.908Z,19.80
2017-09-28T15:59:23.532Z,19.80
2017-09-28T16:01:52.407Z,19.80
2017-09-28T16:04:22.070Z,19.70
2017-09-28T16:06:50.923Z,19.60
2017-09-28T16:09:19.771Z,19.70
2017-09-28T16:11:48.635Z,19.60
2017-09-28T16:14:17.486Z,19.60
2017-09-28T16:16:47.096Z,19.50
2017-09-28T16:19:16.734Z,19.50
2017-09-28T16:21:45.602Z,19.40
2017-09-28T16:24:14.459Z,19.40
2017-09-28T16:26:43.302Z,19.40
2017-09-28T16:29:12.489Z,19.40
2017-09-28T16:31:41.357Z,19.30
2017-09-28T16:34:09.767Z,19.30
2017-09-28T16:36:38.914Z,19.40
2017-09-28T16:39:07.782Z,19.30
2017-09-28T16:41:36.637Z,19.30
2017-09-28T16:44:05.531Z,19.30
2017-09-28T16:46:34.391Z,19.30
2017-09-28T16:49:03.785Z,19.20
2017-09-28T16:51:32.634Z,19.20
2017-09-28T16:54:01.484Z,19.10
2017-09-28T16:56:31.098Z,19.10
2017-09-28T16:58:59.958Z,19.10
2017-09-28T17:01:29.054Z,19.00
2017-09-28T17:03:57.890Z,19.00
2017-09-28T17:06:26.733Z,19.00
2017-09-28T17:08:55.591Z,19.00
2017-09-28T17:11:24.445Z,19.00
2017-09-28T17:13:53.304Z,19.00
2017-09-28T17:16:22.126Z,19.00
2017-09-28T17:18:51.733Z,18.90
2017-09-28T17:21:21.341Z,18.90
2017-09-28T17:23:50.967Z,18.90
2017-09-28T17:26:19.628Z,18.80
2017-09-28T17:28:49.242Z,18.80
2017-09-28T17:31:18.075Z,18.80
2017-09-28T17:33:46.926Z,18.80
2017-09-28T17:36:15.840Z,18.80
2017-09-28T17:38:45.170Z,18.80
2017-09-28T17:41:14.014Z,18.80
2017-09-28T17:43:43.619Z,18.80
2017-09-28T17:46:13.804Z,18.80
2017-09-28T17:48:42.658Z,18.70
2017-09-28T17:51:11.501Z,18.70
2017-09-28T17:53:40.347Z,18.70
2017-09-28T17:56:09.441Z,18.60
2017-09-28T17:58:38.307Z,18.60
2017-09-28T18:01:07.906Z,18.60
2017-09-28T18:03:37.522Z,18.60
2017-09-28T18:06:06.399Z,18.60
2017-09-28T18:08:35.070Z,18.60
2017-09-28T18:11:03.737Z,18.60
2017-09-28T18:13:34.827Z,18.60
2017-09-28T18:16:04.478Z,18.60
2017-09-28T18:18:33.318Z,18.60
2017-09-28T18:21:02.758Z,18.50
2017-09-28T18:23:31.611Z,18.50
2017-09-28T18:26:01.836Z,18.60
2017-09-28T18:28:31.460Z,18.50
2017-09-28T18:31:01.092Z,18.40
2017-09-28T18:33:29.938Z,18.40
2017-09-28T18:35:58.809Z,18.40
2017-09-28T18:38:27.663Z,18.40
2017-09-28T18:41:00.046Z,18.40
2017-09-28T18:43:29.455Z,18.40
2017-09-28T18:45:58.304Z,18.30
2017-09-28T18:48:27.935Z,18.20
2017-09-28T18:50:56.599Z,18.20
2017-09-28T18:53:25.472Z,18.20
2017-09-28T18:55:54.329Z,18.20
2017-09-28T18:58:23.213Z,18.20
2017-09-28T19:00:52.077Z,18.20
2017-09-28T19:03:20.942Z,18.20
2017-09-28T19:05:54.766Z,18.20
2017-09-28T19:08:23.901Z,18.10
2017-09-28T19:10:53.627Z,18.10
2017-09-28T19:13:23.439Z,18.10
2017-09-28T19:15:52.126Z,18.10
2017-09-28T19:18:21.629Z,18.10
2017-09-28T19:20:50.473Z,18.10
2017-09-28T19:23:20.102Z,18.00
2017-09-28T19:25:51.554Z,18.00
2017-09-28T19:28:20.401Z,17.90
2017-09-28T19:30:49.870Z,17.90
2017-09-28T19:33:19.128Z,17.90
2017-09-28T19:35:48.565Z,17.90
2017-09-28T19:38:17.408Z,17.80
2017-09-28T19:43:33.568Z,17.70
2017-09-28T19:46:05.286Z,17.70
2017-09-28T19:48:36.883Z,17.70
2017-09-28T19:51:10.164Z,17.70
2017-09-28T19:53:39.014Z,17.60
2017-09-28T19:56:07.637Z,17.60
2017-09-28T19:58:36.482Z,17.60
2017-09-28T20:01:05.426Z,17.60
2017-09-28T20:03:37.186Z,17.50
2017-09-28T20:06:07.528Z,17.50
2017-09-28T20:08:38.038Z,17.30
2017-09-28T20:11:07.350Z,17.30
2017-09-28T20:13:37.242Z,17.30
2017-09-28T20:16:07.517Z,17.30
2017-09-28T20:18:36.395Z,17.30
2017-09-28T20:21:05.059Z,17.30
2017-09-28T20:23:34.182Z,17.30
2017-09-28T20:26:03.076Z,17.30
2017-09-28T20:28:31.928Z,17.30
2017-09-28T20:31:00.497Z,17.30
2017-09-28T20:33:30.113Z,17.30
2017-09-28T20:36:00.460Z,17.20
2017-09-28T20:38:29.302Z,17.20
2017-09-28T20:41:01.922Z,17.20
2017-09-28T20:43:31.083Z,17.20
2017-09-28T20:45:59.942Z,17.20
2017-09-28T20:48:28.789Z,17.10
2017-09-28T20:51:02.123Z,17.00
2017-09-28T20:53:30.279Z,17.00
2017-09-28T20:58:32.653Z,16.90
2017-09-28T21:01:01.499Z,16.80
2017-09-28T21:03:30.034Z,16.80
2017-09-28T21:05:59.132Z,16.80
2017-09-28T21:08:27.967Z,16.80
2017-09-28T21:10:56.871Z,16.70
2017-09-28T21:13:25.721Z,16.70
2017-09-28T21:15:54.571Z,16.70
2017-09-28T21:18:23.425Z,16.70
2017-09-28T21:20:52.277Z,16.70
2017-09-28T21:23:21.134Z,16.70
2017-09-28T21:25:49.979Z,16.70
2017-09-28T21:28:18.826Z,16.60
2017-09-28T21:30:48.434Z,16.60
2017-09-28T21:33:18.047Z,16.60
2017-09-28T21:35:47.654Z,16.60
2017-09-28T21:38:17.074Z,16.60
2017-09-28T21:40:45.926Z,16.60
2017-09-28T21:43:14.777Z,16.60
2017-09-28T21:45:43.445Z,16.60
2017-09-28T21:48:12.292Z,16.60
2017-09-28T21:50:40.955Z,16.60
2017-09-28T21:53:11.085Z,16.60
2017-09-28T21:55:39.960Z,16.60
2017-09-28T21:58:08.805Z,16.60
2017-09-28T22:00:38.418Z,16.60
2017-09-28T22:03:08.050Z,16.60
2017-09-28T22:05:36.890Z,16.60
2017-09-28T22:08:08.291Z,16.60
2017-09-28T22:10:37.203Z,16.60
2017-09-28T22:13:10.786Z,16.60
2017-09-28T22:15:44.567Z,16.60
2017-09-28T22:18:14.190Z,16.60
2017-09-28T22:20:44.110Z,16.60
2017-09-28T22:23:12.958Z,16.60
2017-09-28T22:25:41.621Z,16.60
2017-09-28T22:28:10.509Z,16.60
2017-09-28T22:30:49.052Z,16.60
2017-09-28T22:33:17.806Z,16.60
2017-09-28T22:35:46.665Z,16.60
2017-09-28T22:38:15.525Z,16.60
2017-09-28T22:40:45.227Z,16.60
2017-09-28T22:43:14.912Z,16.60
2017-09-28T22:45:43.757Z,16.60
2017-09-28T22:48:13.366Z,16.60
2017-09-28T22:50:43.706Z,16.60
2017-09-28T22:53:13.322Z,16.60
2017-09-28T22:55:43.051Z,16.60
2017-09-28T22:58:11.909Z,16.60
2017-09-28T23:00:40.469Z,16.60
2017-09-28T23:03:09.380Z,16.50
2017-09-28T23:05:38.811Z,16.50
2017-09-28T23:08:07.471Z,16.50
2017-09-28T23:10:37.164Z,16.50
2017-09-28T23:13:05.927Z,16.50
2017-09-28T23:15:35.277Z,16.50
2017-09-28T23:18:04.892Z,16.50
2017-09-28T23:20:33.746Z,16.50
2017-09-28T23:23:02.694Z,16.50
2017-09-28T23:25:31.353Z,16.50
2017-09-28T23:28:01.506Z,16.40
2017-09-28T23:30:30.860Z,16.50
2017-09-28T23:33:00.970Z,16.40
2017-09-28T23:35:29.809Z,16.40
2017-09-28T23:37:59.589Z,16.40
2017-09-28T23:40:29.374Z,16.40
2017-09-28T23:42:58.563Z,16.40
2017-09-28T23:45:27.863Z,16.40
2017-09-28T23:47:56.701Z,16.30
2017-09-28T23:50:27.798Z,16.20
2017-09-28T23:52:57.437Z,16.20
2017-09-28T23:55:26.324Z,16.20
2017-09-28T23:57:56.854Z,16.20
